sensor_id;sensor_type;location;lat;lon;timestamp;P1;durP1;ratioP1;P2;durP2;ratioP2
36797;SDS011;22748;8.426;99.512;2023-04-24T00:00:40;16.92;;;15.25;;
36797;SDS011;22748;8.426;99.512;2023-04-24T00:03:11;19.83;;;14.50;;
36797;SDS011;22748;8.426;99.512;2023-04-24T00:05:48;25.52;;;18.52;;
36797;SDS011;22748;8.426;99.512;2023-04-24T00:08:25;16.93;;;14.97;;
36797;SDS011;22748;8.426;99.512;2023-04-24T00:10:58;17.23;;;15.48;;
36797;SDS011;22748;8.426;99.512;2023-04-24T00:13:29;18.50;;;16.58;;
36797;SDS011;22748;8.426;99.512;2023-04-24T00:16:05;20.00;;;17.25;;
36797;SDS011;22748;8.426;99.512;2023-04-24T00:18:36;19.35;;;17.27;;
36797;SDS011;22748;8.426;99.512;2023-04-24T00:21:08;19.40;;;17.45;;
36797;SDS011;22748;8.426;99.512;2023-04-24T00:26:10;21.63;;;19.48;;
36797;SDS011;22748;8.426;99.512;2023-04-24T00:28:47;20.63;;;18.52;;
36797;SDS011;22748;8.426;99.512;2023-04-24T00:31:30;24.13;;;20.15;;
36797;SDS011;22748;8.426;99.512;2023-04-24T00:34:09;22.15;;;20.02;;
36797;SDS011;22748;8.426;99.512;2023-04-24T00:36:39;23.17;;;20.75;;
36797;SDS011;22748;8.426;99.512;2023-04-24T00:39:23;24.33;;;20.50;;
36797;SDS011;22748;8.426;99.512;2023-04-24T00:41:59;22.55;;;20.10;;
36797;SDS011;22748;8.426;99.512;2023-04-24T00:44:32;24.13;;;20.58;;
36797;SDS011;22748;8.426;99.512;2023-04-24T00:49:32;23.63;;;21.10;;
36797;SDS011;22748;8.426;99.512;2023-04-24T00:52:02;24.58;;;21.98;;
36797;SDS011;22748;8.426;99.512;2023-04-24T00:54:46;24.83;;;21.98;;
36797;SDS011;22748;8.426;99.512;2023-04-24T00:57:19;23.13;;;20.57;;
36797;SDS011;22748;8.426;99.512;2023-04-24T00:59:56;23.75;;;21.45;;
36797;SDS011;22748;8.426;99.512;2023-04-24T01:02:32;24.25;;;21.63;;
36797;SDS011;22748;8.426;99.512;2023-04-24T01:05:11;23.67;;;21.38;;
36797;SDS011;22748;8.426;99.512;2023-04-24T01:07:43;26.35;;;23.60;;
36797;SDS011;22748;8.426;99.512;2023-04-24T01:10:28;23.13;;;20.92;;
36797;SDS011;22748;8.426;99.512;2023-04-24T01:13:02;26.70;;;22.30;;
36797;SDS011;22748;8.426;99.512;2023-04-24T01:15:39;27.23;;;22.42;;
36797;SDS011;22748;8.426;99.512;2023-04-24T01:18:15;24.65;;;21.98;;
36797;SDS011;22748;8.426;99.512;2023-04-24T01:20:51;25.67;;;22.27;;
36797;SDS011;22748;8.426;99.512;2023-04-24T01:23:43;23.85;;;21.58;;
36797;SDS011;22748;8.426;99.512;2023-04-24T01:26:16;24.48;;;21.98;;
36797;SDS011;22748;8.426;99.512;2023-04-24T01:28:48;24.27;;;21.77;;
36797;SDS011;22748;8.426;99.512;2023-04-24T01:31:19;23.90;;;21.42;;
36797;SDS011;22748;8.426;99.512;2023-04-24T01:33:54;26.70;;;23.35;;
36797;SDS011;22748;8.426;99.512;2023-04-24T01:36:35;26.05;;;23.25;;
36797;SDS011;22748;8.426;99.512;2023-04-24T01:39:15;27.42;;;23.27;;
36797;SDS011;22748;8.426;99.512;2023-04-24T01:41:47;27.20;;;24.25;;
36797;SDS011;22748;8.426;99.512;2023-04-24T01:44:18;33.20;;;23.48;;
36797;SDS011;22748;8.426;99.512;2023-04-24T01:46:54;31.20;;;25.45;;
36797;SDS011;22748;8.426;99.512;2023-04-24T01:49:39;27.05;;;24.17;;
36797;SDS011;22748;8.426;99.512;2023-04-24T01:52:14;26.20;;;23.23;;
36797;SDS011;22748;8.426;99.512;2023-04-24T01:55:06;25.58;;;22.98;;
36797;SDS011;22748;8.426;99.512;2023-04-24T01:57:46;25.60;;;23.13;;
36797;SDS011;22748;8.426;99.512;2023-04-24T02:00:17;28.05;;;23.58;;
36797;SDS011;22748;8.426;99.512;2023-04-24T02:03:01;25.45;;;22.75;;
36797;SDS011;22748;8.426;99.512;2023-04-24T02:05:47;24.88;;;22.10;;
36797;SDS011;22748;8.426;99.512;2023-04-24T02:08:18;26.73;;;23.73;;
36797;SDS011;22748;8.426;99.512;2023-04-24T02:11:07;26.52;;;22.83;;
36797;SDS011;22748;8.426;99.512;2023-04-24T02:13:44;24.92;;;22.27;;
36797;SDS011;22748;8.426;99.512;2023-04-24T02:16:20;31.13;;;24.02;;
36797;SDS011;22748;8.426;99.512;2023-04-24T02:18:57;28.23;;;23.02;;
36797;SDS011;22748;8.426;99.512;2023-04-24T02:21:28;35.15;;;26.45;;
36797;SDS011;22748;8.426;99.512;2023-04-24T02:23:59;27.30;;;24.23;;
36797;SDS011;22748;8.426;99.512;2023-04-24T02:26:32;26.88;;;22.98;;
36797;SDS011;22748;8.426;99.512;2023-04-24T02:29:07;26.70;;;23.60;;
36797;SDS011;22748;8.426;99.512;2023-04-24T02:31:43;27.13;;;23.60;;
36797;SDS011;22748;8.426;99.512;2023-04-24T02:34:13;24.35;;;21.83;;
36797;SDS011;22748;8.426;99.512;2023-04-24T02:39:14;33.05;;;23.23;;
36797;SDS011;22748;8.426;99.512;2023-04-24T02:42:03;28.90;;;23.58;;
36797;SDS011;22748;8.426;99.512;2023-04-24T02:44:35;26.45;;;22.48;;
36797;SDS011;22748;8.426;99.512;2023-04-24T02:47:12;27.02;;;22.30;;
36797;SDS011;22748;8.426;99.512;2023-04-24T02:49:57;29.08;;;22.80;;
36797;SDS011;22748;8.426;99.512;2023-04-24T02:52:33;24.40;;;21.77;;
36797;SDS011;22748;8.426;99.512;2023-04-24T02:55:10;25.13;;;20.95;;
36797;SDS011;22748;8.426;99.512;2023-04-24T02:57:47;25.30;;;20.83;;
36797;SDS011;22748;8.426;99.512;2023-04-24T03:00:20;26.38;;;20.42;;
36797;SDS011;22748;8.426;99.512;2023-04-24T03:03:04;27.65;;;20.92;;
36797;SDS011;22748;8.426;99.512;2023-04-24T03:05:41;28.50;;;21.58;;
36797;SDS011;22748;8.426;99.512;2023-04-24T03:08:18;22.02;;;19.70;;
36797;SDS011;22748;8.426;99.512;2023-04-24T03:10:49;21.88;;;19.45;;
36797;SDS011;22748;8.426;99.512;2023-04-24T03:13:21;23.98;;;20.00;;
36797;SDS011;22748;8.426;99.512;2023-04-24T03:15:52;21.83;;;19.60;;
36797;SDS011;22748;8.426;99.512;2023-04-24T03:18:29;23.85;;;19.20;;
36797;SDS011;22748;8.426;99.512;2023-04-24T03:21:05;20.67;;;18.58;;
36797;SDS011;22748;8.426;99.512;2023-04-24T03:23:40;22.58;;;19.33;;
36797;SDS011;22748;8.426;99.512;2023-04-24T03:26:11;24.52;;;19.95;;
36797;SDS011;22748;8.426;99.512;2023-04-24T03:29:02;24.33;;;21.70;;
36797;SDS011;22748;8.426;99.512;2023-04-24T03:31:34;19.50;;;17.50;;
36797;SDS011;22748;8.426;99.512;2023-04-24T03:34:10;20.30;;;18.20;;
36797;SDS011;22748;8.426;99.512;2023-04-24T03:36:42;21.73;;;19.17;;
36797;SDS011;22748;8.426;99.512;2023-04-24T03:39:24;19.92;;;17.95;;
36797;SDS011;22748;8.426;99.512;2023-04-24T03:41:55;24.98;;;18.67;;
36797;SDS011;22748;8.426;99.512;2023-04-24T03:46:59;20.70;;;18.55;;
36797;SDS011;22748;8.426;99.512;2023-04-24T03:49:35;19.52;;;17.60;;
36797;SDS011;22748;8.426;99.512;2023-04-24T03:52:11;21.45;;;19.23;;
36797;SDS011;22748;8.426;99.512;2023-04-24T03:54:42;20.92;;;18.83;;
36797;SDS011;22748;8.426;99.512;2023-04-24T03:57:13;23.45;;;19.42;;
36797;SDS011;22748;8.426;99.512;2023-04-24T03:59:52;22.88;;;20.30;;
36797;SDS011;22748;8.426;99.512;2023-04-24T04:02:33;21.15;;;19.15;;
36797;SDS011;22748;8.426;99.512;2023-04-24T04:05:06;22.02;;;19.10;;
36797;SDS011;22748;8.426;99.512;2023-04-24T04:07:45;21.75;;;19.23;;
36797;SDS011;22748;8.426;99.512;2023-04-24T04:10:21;23.80;;;19.98;;
36797;SDS011;22748;8.426;99.512;2023-04-24T04:12:52;21.15;;;19.05;;
36797;SDS011;22748;8.426;99.512;2023-04-24T04:17:55;22.50;;;19.90;;
36797;SDS011;22748;8.426;99.512;2023-04-24T04:20:26;23.25;;;20.55;;
36797;SDS011;22748;8.426;99.512;2023-04-24T04:23:02;23.15;;;19.33;;
36797;SDS011;22748;8.426;99.512;2023-04-24T04:25:33;19.10;;;17.25;;
36797;SDS011;22748;8.426;99.512;2023-04-24T04:28:05;20.10;;;18.10;;
36797;SDS011;22748;8.426;99.512;2023-04-24T04:30:37;20.85;;;18.65;;
36797;SDS011;22748;8.426;99.512;2023-04-24T04:33:13;19.90;;;17.75;;
36797;SDS011;22748;8.426;99.512;2023-04-24T04:35:48;21.05;;;18.55;;
36797;SDS011;22748;8.426;99.512;2023-04-24T04:38:27;19.73;;;17.80;;
36797;SDS011;22748;8.426;99.512;2023-04-24T04:40:57;19.57;;;17.63;;
36797;SDS011;22748;8.426;99.512;2023-04-24T04:43:30;19.73;;;17.65;;
36797;SDS011;22748;8.426;99.512;2023-04-24T04:46:04;20.67;;;18.65;;
36797;SDS011;22748;8.426;99.512;2023-04-24T04:48:40;25.05;;;21.13;;
36797;SDS011;22748;8.426;99.512;2023-04-24T04:51:11;24.20;;;20.20;;
36797;SDS011;22748;8.426;99.512;2023-04-24T04:53:43;21.15;;;18.80;;
36797;SDS011;22748;8.426;99.512;2023-04-24T04:56:19;20.90;;;18.95;;
36797;SDS011;22748;8.426;99.512;2023-04-24T05:01:28;21.42;;;18.67;;
36797;SDS011;22748;8.426;99.512;2023-04-24T05:04:04;19.42;;;17.27;;
36797;SDS011;22748;8.426;99.512;2023-04-24T05:06:35;19.38;;;17.45;;
36797;SDS011;22748;8.426;99.512;2023-04-24T05:09:11;19.52;;;17.73;;
36797;SDS011;22748;8.426;99.512;2023-04-24T05:14:11;21.13;;;17.70;;
36797;SDS011;22748;8.426;99.512;2023-04-24T05:19:14;19.65;;;17.60;;
36797;SDS011;22748;8.426;99.512;2023-04-24T05:21:45;21.17;;;18.77;;
36797;SDS011;22748;8.426;99.512;2023-04-24T05:24:16;18.83;;;16.98;;
36797;SDS011;22748;8.426;99.512;2023-04-24T05:26:46;25.80;;;18.45;;
36797;SDS011;22748;8.426;99.512;2023-04-24T05:31:55;30.08;;;20.67;;
36797;SDS011;22748;8.426;99.512;2023-04-24T05:34:25;36.13;;;20.50;;
36797;SDS011;22748;8.426;99.512;2023-04-24T05:36:57;26.27;;;21.15;;
36797;SDS011;22748;8.426;99.512;2023-04-24T05:39:27;24.10;;;19.42;;
36797;SDS011;22748;8.426;99.512;2023-04-24T05:42:03;23.30;;;19.35;;
36797;SDS011;22748;8.426;99.512;2023-04-24T05:44:35;21.60;;;19.30;;
36797;SDS011;22748;8.426;99.512;2023-04-24T05:47:13;23.77;;;20.20;;
36797;SDS011;22748;8.426;99.512;2023-04-24T05:49:44;22.98;;;19.25;;
36797;SDS011;22748;8.426;99.512;2023-04-24T05:52:14;21.23;;;19.13;;
36797;SDS011;22748;8.426;99.512;2023-04-24T05:54:45;21.30;;;19.10;;
36797;SDS011;22748;8.426;99.512;2023-04-24T05:57:16;19.38;;;16.30;;
36797;SDS011;22748;8.426;99.512;2023-04-24T05:59:48;22.02;;;18.45;;
36797;SDS011;22748;8.426;99.512;2023-04-24T06:02:33;20.60;;;18.48;;
36797;SDS011;22748;8.426;99.512;2023-04-24T06:05:10;16.97;;;15.17;;
36797;SDS011;22748;8.426;99.512;2023-04-24T06:07:41;19.80;;;16.83;;
36797;SDS011;22748;8.426;99.512;2023-04-24T06:10:12;17.35;;;15.73;;
36797;SDS011;22748;8.426;99.512;2023-04-24T06:12:49;18.30;;;16.55;;
36797;SDS011;22748;8.426;99.512;2023-04-24T06:15:22;18.00;;;15.13;;
36797;SDS011;22748;8.426;99.512;2023-04-24T06:17:55;17.15;;;15.05;;
36797;SDS011;22748;8.426;99.512;2023-04-24T06:20:25;18.25;;;14.80;;
36797;SDS011;22748;8.426;99.512;2023-04-24T06:23:01;18.90;;;14.73;;
36797;SDS011;22748;8.426;99.512;2023-04-24T06:25:37;13.98;;;12.77;;
36797;SDS011;22748;8.426;99.512;2023-04-24T06:28:14;14.70;;;12.65;;
36797;SDS011;22748;8.426;99.512;2023-04-24T06:30:44;13.25;;;11.98;;
36797;SDS011;22748;8.426;99.512;2023-04-24T06:33:19;11.25;;;10.13;;
36797;SDS011;22748;8.426;99.512;2023-04-24T06:35:50;12.70;;;10.98;;
36797;SDS011;22748;8.426;99.512;2023-04-24T06:38:26;10.20;;;9.10;;
36797;SDS011;22748;8.426;99.512;2023-04-24T06:41:02;13.68;;;9.77;;
36797;SDS011;22748;8.426;99.512;2023-04-24T06:43:34;11.38;;;9.85;;
36797;SDS011;22748;8.426;99.512;2023-04-24T06:46:07;10.77;;;9.68;;
36797;SDS011;22748;8.426;99.512;2023-04-24T06:49:03;11.05;;;9.95;;
36797;SDS011;22748;8.426;99.512;2023-04-24T06:51:52;10.95;;;10.05;;
36797;SDS011;22748;8.426;99.512;2023-04-24T06:54:30;10.18;;;9.20;;
36797;SDS011;22748;8.426;99.512;2023-04-24T06:57:06;10.88;;;9.98;;
36797;SDS011;22748;8.426;99.512;2023-04-24T06:59:42;14.23;;;10.32;;
36797;SDS011;22748;8.426;99.512;2023-04-24T07:02:18;11.13;;;9.93;;
36797;SDS011;22748;8.426;99.512;2023-04-24T07:04:51;11.55;;;10.45;;
36797;SDS011;22748;8.426;99.512;2023-04-24T07:07:36;11.27;;;9.93;;
36797;SDS011;22748;8.426;99.512;2023-04-24T07:10:11;12.30;;;11.07;;
36797;SDS011;22748;8.426;99.512;2023-04-24T07:12:47;12.48;;;11.25;;
36797;SDS011;22748;8.426;99.512;2023-04-24T07:15:17;12.00;;;10.23;;
36797;SDS011;22748;8.426;99.512;2023-04-24T07:17:48;11.30;;;10.30;;
36797;SDS011;22748;8.426;99.512;2023-04-24T07:20:21;12.60;;;11.40;;
36797;SDS011;22748;8.426;99.512;2023-04-24T07:22:52;12.75;;;11.52;;
36797;SDS011;22748;8.426;99.512;2023-04-24T07:25:27;14.90;;;11.38;;
36797;SDS011;22748;8.426;99.512;2023-04-24T07:28:06;14.43;;;13.13;;
36797;SDS011;22748;8.426;99.512;2023-04-24T07:30:36;19.92;;;12.48;;
36797;SDS011;22748;8.426;99.512;2023-04-24T07:33:13;15.18;;;13.07;;
36797;SDS011;22748;8.426;99.512;2023-04-24T07:35:50;15.52;;;12.95;;
36797;SDS011;22748;8.426;99.512;2023-04-24T07:38:20;13.68;;;12.27;;
36797;SDS011;22748;8.426;99.512;2023-04-24T07:41:05;14.30;;;12.18;;
36797;SDS011;22748;8.426;99.512;2023-04-24T07:43:48;13.60;;;12.00;;
36797;SDS011;22748;8.426;99.512;2023-04-24T07:46:29;14.38;;;12.30;;
36797;SDS011;22748;8.426;99.512;2023-04-24T07:49:11;16.58;;;13.35;;
36797;SDS011;22748;8.426;99.512;2023-04-24T07:51:47;15.85;;;14.15;;
36797;SDS011;22748;8.426;99.512;2023-04-24T07:54:18;15.70;;;14.20;;
36797;SDS011;22748;8.426;99.512;2023-04-24T07:57:02;16.00;;;14.10;;
36797;SDS011;22748;8.426;99.512;2023-04-24T07:59:42;15.82;;;14.05;;
36797;SDS011;22748;8.426;99.512;2023-04-24T08:02:18;18.52;;;14.10;;
36797;SDS011;22748;8.426;99.512;2023-04-24T08:04:52;15.40;;;13.68;;
36797;SDS011;22748;8.426;99.512;2023-04-24T08:07:25;15.10;;;13.60;;
36797;SDS011;22748;8.426;99.512;2023-04-24T08:09:58;15.27;;;13.65;;
36797;SDS011;22748;8.426;99.512;2023-04-24T08:12:31;16.17;;;13.57;;
36797;SDS011;22748;8.426;99.512;2023-04-24T08:15:04;16.77;;;14.38;;
36797;SDS011;22748;8.426;99.512;2023-04-24T08:17:53;15.63;;;14.13;;
36797;SDS011;22748;8.426;99.512;2023-04-24T08:23:04;15.37;;;13.13;;
36797;SDS011;22748;8.426;99.512;2023-04-24T08:25:41;15.05;;;13.50;;
36797;SDS011;22748;8.426;99.512;2023-04-24T08:28:16;16.60;;;14.57;;
36797;SDS011;22748;8.426;99.512;2023-04-24T08:30:52;15.70;;;14.10;;
36797;SDS011;22748;8.426;99.512;2023-04-24T08:33:37;18.98;;;17.08;;
36797;SDS011;22748;8.426;99.512;2023-04-24T08:36:20;18.55;;;16.55;;
36797;SDS011;22748;8.426;99.512;2023-04-24T08:39:08;19.30;;;16.40;;
36797;SDS011;22748;8.426;99.512;2023-04-24T08:41:39;22.25;;;19.85;;
36797;SDS011;22748;8.426;99.512;2023-04-24T08:44:19;18.35;;;16.45;;
36797;SDS011;22748;8.426;99.512;2023-04-24T08:46:50;15.95;;;13.43;;
36797;SDS011;22748;8.426;99.512;2023-04-24T08:49:25;16.42;;;13.20;;
36797;SDS011;22748;8.426;99.512;2023-04-24T08:51:56;16.77;;;12.90;;
36797;SDS011;22748;8.426;99.512;2023-04-24T08:57:49;12.05;;;10.45;;
36797;SDS011;22748;8.426;99.512;2023-04-24T09:03:01;13.52;;;10.38;;
36797;SDS011;22748;8.426;99.512;2023-04-24T09:05:34;12.13;;;10.65;;
36797;SDS011;22748;8.426;99.512;2023-04-24T09:10:47;18.52;;;14.23;;
36797;SDS011;22748;8.426;99.512;2023-04-24T09:13:26;21.50;;;15.50;;
36797;SDS011;22748;8.426;99.512;2023-04-24T09:15:56;21.42;;;15.18;;
36797;SDS011;22748;8.426;99.512;2023-04-24T09:18:32;20.40;;;15.35;;
36797;SDS011;22748;8.426;99.512;2023-04-24T09:21:06;13.60;;;11.40;;
36797;SDS011;22748;8.426;99.512;2023-04-24T09:23:43;19.08;;;12.80;;
36797;SDS011;22748;8.426;99.512;2023-04-24T09:26:15;11.13;;;9.93;;
36797;SDS011;22748;8.426;99.512;2023-04-24T09:28:48;10.20;;;9.20;;
36797;SDS011;22748;8.426;99.512;2023-04-24T09:31:28;9.60;;;7.85;;
36797;SDS011;22748;8.426;99.512;2023-04-24T09:34:02;8.32;;;6.78;;
36797;SDS011;22748;8.426;99.512;2023-04-24T09:36:34;9.25;;;6.45;;
36797;SDS011;22748;8.426;99.512;2023-04-24T09:39:12;8.55;;;6.43;;
36797;SDS011;22748;8.426;99.512;2023-04-24T09:41:45;9.40;;;7.97;;
36797;SDS011;22748;8.426;99.512;2023-04-24T09:44:34;18.58;;;8.98;;
36797;SDS011;22748;8.426;99.512;2023-04-24T09:47:10;19.20;;;9.38;;
36797;SDS011;22748;8.426;99.512;2023-04-24T09:49:58;13.40;;;7.55;;
36797;SDS011;22748;8.426;99.512;2023-04-24T09:52:44;10.68;;;8.27;;
36797;SDS011;22748;8.426;99.512;2023-04-24T09:55:21;9.70;;;7.43;;
36797;SDS011;22748;8.426;99.512;2023-04-24T09:58:04;10.02;;;7.72;;
36797;SDS011;22748;8.426;99.512;2023-04-24T10:00:39;10.88;;;8.50;;
36797;SDS011;22748;8.426;99.512;2023-04-24T10:03:10;11.40;;;8.93;;
36797;SDS011;22748;8.426;99.512;2023-04-24T10:05:46;13.85;;;9.85;;
36797;SDS011;22748;8.426;99.512;2023-04-24T10:08:24;9.75;;;8.35;;
36797;SDS011;22748;8.426;99.512;2023-04-24T10:11:01;13.60;;;9.98;;
36797;SDS011;22748;8.426;99.512;2023-04-24T10:13:39;17.73;;;10.38;;
36797;SDS011;22748;8.426;99.512;2023-04-24T10:16:31;13.93;;;9.82;;
36797;SDS011;22748;8.426;99.512;2023-04-24T10:19:03;13.07;;;10.40;;
36797;SDS011;22748;8.426;99.512;2023-04-24T10:21:35;14.05;;;10.73;;
36797;SDS011;22748;8.426;99.512;2023-04-24T10:24:20;30.17;;;26.67;;
36797;SDS011;22748;8.426;99.512;2023-04-24T10:26:55;24.48;;;13.93;;
36797;SDS011;22748;8.426;99.512;2023-04-24T10:29:33;26.33;;;13.57;;
36797;SDS011;22748;8.426;99.512;2023-04-24T10:32:25;17.15;;;12.10;;
36797;SDS011;22748;8.426;99.512;2023-04-24T10:35:08;20.90;;;12.45;;
36797;SDS011;22748;8.426;99.512;2023-04-24T10:37:43;25.00;;;15.20;;
36797;SDS011;22748;8.426;99.512;2023-04-24T10:40:17;18.17;;;13.05;;
36797;SDS011;22748;8.426;99.512;2023-04-24T10:42:54;18.10;;;13.65;;
36797;SDS011;22748;8.426;99.512;2023-04-24T10:45:33;17.90;;;12.73;;
36797;SDS011;22748;8.426;99.512;2023-04-24T10:51:04;21.98;;;12.18;;
36797;SDS011;22748;8.426;99.512;2023-04-24T10:53:43;23.45;;;12.38;;
36797;SDS011;22748;8.426;99.512;2023-04-24T10:56:15;15.75;;;12.38;;
36797;SDS011;22748;8.426;99.512;2023-04-24T10:58:49;15.88;;;11.73;;
36797;SDS011;22748;8.426;99.512;2023-04-24T11:01:28;18.58;;;12.65;;
36797;SDS011;22748;8.426;99.512;2023-04-24T11:04:02;16.88;;;12.30;;
36797;SDS011;22748;8.426;99.512;2023-04-24T11:06:34;14.02;;;12.25;;
36797;SDS011;22748;8.426;99.512;2023-04-24T11:09:15;15.15;;;11.98;;
36797;SDS011;22748;8.426;99.512;2023-04-24T11:11:51;17.00;;;11.98;;
36797;SDS011;22748;8.426;99.512;2023-04-24T11:17:58;14.63;;;11.43;;
36797;SDS011;22748;8.426;99.512;2023-04-24T11:20:38;15.57;;;11.77;;
36797;SDS011;22748;8.426;99.512;2023-04-24T11:23:12;15.07;;;12.20;;
36797;SDS011;22748;8.426;99.512;2023-04-24T11:25:44;15.45;;;11.73;;
36797;SDS011;22748;8.426;99.512;2023-04-24T11:28:47;14.15;;;12.80;;
36797;SDS011;22748;8.426;99.512;2023-04-24T11:31:39;21.75;;;15.43;;
36797;SDS011;22748;8.426;99.512;2023-04-24T11:34:22;19.55;;;15.07;;
36797;SDS011;22748;8.426;99.512;2023-04-24T11:37:00;17.48;;;14.50;;
36797;SDS011;22748;8.426;99.512;2023-04-24T11:39:36;19.38;;;15.07;;
36797;SDS011;22748;8.426;99.512;2023-04-24T11:42:19;17.63;;;15.48;;
36797;SDS011;22748;8.426;99.512;2023-04-24T11:44:57;21.92;;;19.02;;
36797;SDS011;22748;8.426;99.512;2023-04-24T11:47:33;27.35;;;20.13;;
36797;SDS011;22748;8.426;99.512;2023-04-24T11:50:10;18.10;;;14.85;;
36797;SDS011;22748;8.426;99.512;2023-04-24T11:52:48;17.05;;;13.48;;
36797;SDS011;22748;8.426;99.512;2023-04-24T11:55:31;18.88;;;13.68;;
36797;SDS011;22748;8.426;99.512;2023-04-24T11:58:07;15.25;;;13.48;;
36797;SDS011;22748;8.426;99.512;2023-04-24T12:00:38;14.50;;;13.00;;
36797;SDS011;22748;8.426;99.512;2023-04-24T12:03:14;27.55;;;20.92;;
36797;SDS011;22748;8.426;99.512;2023-04-24T12:06:05;30.60;;;24.23;;
36797;SDS011;22748;8.426;99.512;2023-04-24T12:08:37;29.60;;;25.23;;
36797;SDS011;22748;8.426;99.512;2023-04-24T12:11:16;23.90;;;20.38;;
36797;SDS011;22748;8.426;99.512;2023-04-24T12:13:47;22.38;;;17.95;;
36797;SDS011;22748;8.426;99.512;2023-04-24T12:16:26;18.52;;;15.15;;
36797;SDS011;22748;8.426;99.512;2023-04-24T12:19:03;16.80;;;13.57;;
36797;SDS011;22748;8.426;99.512;2023-04-24T12:21:33;17.52;;;12.93;;
36797;SDS011;22748;8.426;99.512;2023-04-24T12:24:09;17.65;;;12.38;;
36797;SDS011;22748;8.426;99.512;2023-04-24T12:26:41;15.70;;;11.90;;
36797;SDS011;22748;8.426;99.512;2023-04-24T12:29:12;14.88;;;11.95;;
36797;SDS011;22748;8.426;99.512;2023-04-24T12:31:50;13.88;;;11.98;;
36797;SDS011;22748;8.426;99.512;2023-04-24T12:34:25;13.52;;;12.00;;
36797;SDS011;22748;8.426;99.512;2023-04-24T12:36:56;16.73;;;11.87;;
36797;SDS011;22748;8.426;99.512;2023-04-24T12:42:59;13.68;;;12.00;;
36797;SDS011;22748;8.426;99.512;2023-04-24T12:45:30;17.33;;;12.05;;
36797;SDS011;22748;8.426;99.512;2023-04-24T12:48:01;23.77;;;14.98;;
36797;SDS011;22748;8.426;99.512;2023-04-24T12:50:37;14.70;;;13.18;;
36797;SDS011;22748;8.426;99.512;2023-04-24T12:53:15;20.80;;;14.40;;
36797;SDS011;22748;8.426;99.512;2023-04-24T12:56:06;19.40;;;13.27;;
36797;SDS011;22748;8.426;99.512;2023-04-24T12:58:37;18.88;;;13.52;;
36797;SDS011;22748;8.426;99.512;2023-04-24T13:03:39;21.02;;;15.43;;
36797;SDS011;22748;8.426;99.512;2023-04-24T13:06:15;22.83;;;17.05;;
36797;SDS011;22748;8.426;99.512;2023-04-24T13:08:51;30.77;;;21.17;;
36797;SDS011;22748;8.426;99.512;2023-04-24T13:14:13;25.30;;;18.05;;
36797;SDS011;22748;8.426;99.512;2023-04-24T13:16:51;24.30;;;17.98;;
36797;SDS011;22748;8.426;99.512;2023-04-24T13:19:27;23.23;;;17.35;;
36797;SDS011;22748;8.426;99.512;2023-04-24T13:21:58;23.80;;;16.48;;
36797;SDS011;22748;8.426;99.512;2023-04-24T13:24:34;26.58;;;16.15;;
36797;SDS011;22748;8.426;99.512;2023-04-24T13:27:12;24.60;;;15.75;;
36797;SDS011;22748;8.426;99.512;2023-04-24T13:29:43;18.05;;;13.80;;
36797;SDS011;22748;8.426;99.512;2023-04-24T13:32:15;20.02;;;14.15;;
36797;SDS011;22748;8.426;99.512;2023-04-24T13:34:46;17.90;;;14.60;;
36797;SDS011;22748;8.426;99.512;2023-04-24T13:37:18;18.50;;;14.02;;
36797;SDS011;22748;8.426;99.512;2023-04-24T13:40:05;17.50;;;13.88;;
36797;SDS011;22748;8.426;99.512;2023-04-24T13:45:33;19.95;;;14.43;;
36797;SDS011;22748;8.426;99.512;2023-04-24T13:48:10;15.13;;;13.52;;
36797;SDS011;22748;8.426;99.512;2023-04-24T13:50:41;19.20;;;14.10;;
36797;SDS011;22748;8.426;99.512;2023-04-24T13:53:14;15.00;;;13.45;;
36797;SDS011;22748;8.426;99.512;2023-04-24T13:55:44;16.25;;;13.60;;
36797;SDS011;22748;8.426;99.512;2023-04-24T13:58:16;17.95;;;13.98;;
36797;SDS011;22748;8.426;99.512;2023-04-24T14:00:46;16.40;;;13.38;;
36797;SDS011;22748;8.426;99.512;2023-04-24T14:03:19;17.42;;;13.82;;
36797;SDS011;22748;8.426;99.512;2023-04-24T14:05:50;18.13;;;14.10;;
36797;SDS011;22748;8.426;99.512;2023-04-24T14:08:26;18.90;;;14.18;;
36797;SDS011;22748;8.426;99.512;2023-04-24T14:11:01;15.00;;;13.43;;
36797;SDS011;22748;8.426;99.512;2023-04-24T14:13:45;20.33;;;15.70;;
36797;SDS011;22748;8.426;99.512;2023-04-24T14:16:21;23.13;;;14.57;;
36797;SDS011;22748;8.426;99.512;2023-04-24T14:18:53;17.67;;;15.10;;
36797;SDS011;22748;8.426;99.512;2023-04-24T14:21:23;22.05;;;15.20;;
36797;SDS011;22748;8.426;99.512;2023-04-24T14:23:59;23.83;;;15.65;;
36797;SDS011;22748;8.426;99.512;2023-04-24T14:26:35;20.08;;;14.75;;
36797;SDS011;22748;8.426;99.512;2023-04-24T14:29:18;19.00;;;13.63;;
36797;SDS011;22748;8.426;99.512;2023-04-24T14:31:57;17.85;;;14.40;;
36797;SDS011;22748;8.426;99.512;2023-04-24T14:34:29;18.48;;;14.68;;
36797;SDS011;22748;8.426;99.512;2023-04-24T14:36:59;18.88;;;13.88;;
36797;SDS011;22748;8.426;99.512;2023-04-24T14:39:30;20.48;;;14.05;;
36797;SDS011;22748;8.426;99.512;2023-04-24T14:42:00;23.63;;;14.73;;
36797;SDS011;22748;8.426;99.512;2023-04-24T14:44:35;21.20;;;14.75;;
36797;SDS011;22748;8.426;99.512;2023-04-24T14:47:08;19.40;;;14.77;;
36797;SDS011;22748;8.426;99.512;2023-04-24T14:49:39;21.13;;;13.52;;
36797;SDS011;22748;8.426;99.512;2023-04-24T14:52:16;18.98;;;14.40;;
36797;SDS011;22748;8.426;99.512;2023-04-24T14:54:47;18.10;;;15.57;;
36797;SDS011;22748;8.426;99.512;2023-04-24T14:57:24;18.67;;;14.27;;
36797;SDS011;22748;8.426;99.512;2023-04-24T15:00:11;18.52;;;14.55;;
36797;SDS011;22748;8.426;99.512;2023-04-24T15:02:49;15.70;;;13.98;;
36797;SDS011;22748;8.426;99.512;2023-04-24T15:05:26;16.48;;;14.75;;
36797;SDS011;22748;8.426;99.512;2023-04-24T15:08:11;16.33;;;14.55;;
36797;SDS011;22748;8.426;99.512;2023-04-24T15:10:42;18.17;;;15.40;;
36797;SDS011;22748;8.426;99.512;2023-04-24T15:13:14;25.83;;;15.80;;
36797;SDS011;22748;8.426;99.512;2023-04-24T15:15:48;21.55;;;15.45;;
36797;SDS011;22748;8.426;99.512;2023-04-24T15:18:24;20.70;;;15.25;;
36797;SDS011;22748;8.426;99.512;2023-04-24T15:20:56;18.70;;;14.90;;
36797;SDS011;22748;8.426;99.512;2023-04-24T15:23:33;22.65;;;15.65;;
36797;SDS011;22748;8.426;99.512;2023-04-24T15:26:10;22.05;;;15.77;;
36797;SDS011;22748;8.426;99.512;2023-04-24T15:28:41;16.85;;;15.05;;
36797;SDS011;22748;8.426;99.512;2023-04-24T15:31:31;18.67;;;15.07;;
36797;SDS011;22748;8.426;99.512;2023-04-24T15:34:08;20.48;;;15.60;;
36797;SDS011;22748;8.426;99.512;2023-04-24T15:36:54;21.73;;;15.13;;
36797;SDS011;22748;8.426;99.512;2023-04-24T15:41:55;17.75;;;14.32;;
36797;SDS011;22748;8.426;99.512;2023-04-24T15:44:26;19.15;;;13.88;;
36797;SDS011;22748;8.426;99.512;2023-04-24T15:46:58;16.95;;;13.57;;
36797;SDS011;22748;8.426;99.512;2023-04-24T15:49:37;16.02;;;13.50;;
36797;SDS011;22748;8.426;99.512;2023-04-24T15:52:13;14.35;;;12.70;;
36797;SDS011;22748;8.426;99.512;2023-04-24T15:54:49;17.38;;;13.38;;
36797;SDS011;22748;8.426;99.512;2023-04-24T15:57:25;21.25;;;14.57;;
36797;SDS011;22748;8.426;99.512;2023-04-24T16:00:02;18.17;;;14.63;;
36797;SDS011;22748;8.426;99.512;2023-04-24T16:02:52;21.48;;;14.93;;
36797;SDS011;22748;8.426;99.512;2023-04-24T16:05:28;22.05;;;15.70;;
36797;SDS011;22748;8.426;99.512;2023-04-24T16:07:59;21.95;;;15.48;;